createdAt,value
2022-09-11T00:03:27.731Z,11.97
2022-09-11T00:08:31.351Z,11.96
2022-09-11T00:13:33.788Z,11.94
2022-09-11T00:18:35.355Z,11.95
2022-09-11T00:23:36.919Z,11.96
2022-09-11T00:28:38.509Z,11.94
2022-09-11T00:33:41.529Z,11.93
2022-09-11T00:38:45.566Z,11.92
2022-09-11T00:44:07.494Z,11.90
2022-09-11T00:49:36.543Z,11.88
2022-09-11T00:54:49.392Z,11.87
2022-09-11T00:59:55.368Z,11.84
2022-09-11T01:04:58.970Z,11.84
2022-09-11T01:10:00.640Z,11.82
2022-09-11T01:15:14.742Z,11.78
2022-09-11T01:20:43.755Z,11.77
2022-09-11T01:25:45.177Z,11.68
2022-09-11T01:30:56.398Z,11.63
2022-09-11T01:36:16.902Z,11.58
2022-09-11T01:41:31.314Z,11.54
2022-09-11T01:46:41.261Z,11.49
2022-09-11T01:51:43.127Z,11.46
2022-09-11T01:57:13.386Z,11.43
2022-09-11T02:02:24.565Z,11.42
2022-09-11T02:07:44.760Z,11.43
2022-09-11T02:13:11.010Z,11.36
2022-09-11T02:18:28.564Z,11.32
2022-09-11T02:23:30.267Z,11.31
2022-09-11T02:28:31.747Z,11.31
2022-09-11T02:33:36.989Z,11.30
2022-09-11T02:39:10.774Z,11.28
2022-09-11T02:44:19.538Z,11.30
2022-09-11T02:49:57.422Z,11.29
2022-09-11T02:55:32.883Z,11.27
2022-09-11T03:00:34.750Z,11.25
2022-09-11T03:05:36.658Z,11.25
2022-09-11T03:10:38.660Z,11.21
2022-09-11T03:15:44.270Z,11.19
2022-09-11T03:20:46.797Z,11.21
2022-09-11T03:25:48.753Z,11.26
2022-09-11T03:30:52.492Z,11.26
2022-09-11T03:35:54.177Z,11.30
2022-09-11T03:40:55.953Z,11.31
2022-09-11T03:45:57.558Z,11.28
2022-09-11T03:50:59.134Z,11.21
2022-09-11T03:56:03.310Z,11.21
2022-09-11T04:01:13.794Z,11.19
2022-09-11T04:06:16.122Z,11.19
2022-09-11T04:11:18.048Z,11.18
2022-09-11T04:16:20.028Z,11.17
2022-09-11T04:21:21.662Z,11.14
2022-09-11T04:26:26.408Z,11.14
2022-09-11T04:31:28.344Z,11.12
2022-09-11T04:36:30.327Z,11.15
2022-09-11T04:41:31.803Z,11.09
2022-09-11T04:46:33.998Z,11.08
2022-09-11T04:51:37.831Z,11.07
2022-09-11T04:56:42.720Z,11.08
2022-09-11T05:01:45.739Z,11.07
2022-09-11T05:06:49.347Z,11.06
2022-09-11T05:11:53.436Z,11.10
2022-09-11T05:16:55.127Z,11.10
2022-09-11T05:21:56.788Z,11.11
2022-09-11T05:27:01.001Z,11.11
2022-09-11T05:32:02.981Z,11.12
2022-09-11T05:37:04.853Z,11.19
2022-09-11T05:42:06.589Z,11.27
2022-09-11T05:47:08.090Z,11.34
2022-09-11T05:52:09.913Z,11.45
2022-09-11T05:57:11.485Z,11.53
2022-09-11T06:02:13.679Z,11.60
2022-09-11T06:07:15.218Z,11.59
2022-09-11T06:12:18.512Z,11.62
2022-09-11T06:17:20.953Z,11.60
2022-09-11T06:22:22.547Z,11.61
2022-09-11T06:27:24.561Z,11.73
2022-09-11T06:32:26.066Z,11.98
2022-09-11T06:37:27.599Z,12.04
2022-09-11T06:42:29.595Z,12.16
2022-09-11T06:47:31.189Z,12.26
2022-09-11T06:52:34.659Z,12.38
2022-09-11T06:57:41.231Z,12.50
2022-09-11T07:02:44.651Z,12.66
2022-09-11T07:07:47.786Z,12.76
2022-09-11T07:12:54.165Z,12.80
2022-09-11T07:17:55.658Z,12.87
2022-09-11T07:22:58.006Z,12.87
2022-09-11T07:27:59.696Z,12.92
2022-09-11T07:33:01.318Z,13.08
2022-09-11T07:38:03.000Z,13.24
2022-09-11T07:43:05.151Z,13.32
2022-09-11T07:48:06.823Z,13.48
2022-09-11T07:53:08.644Z,13.61
2022-09-11T07:58:10.274Z,13.71
2022-09-11T08:03:11.878Z,13.98
2022-09-11T08:08:13.418Z,14.24
2022-09-11T08:13:16.298Z,14.33
2022-09-11T08:18:19.068Z,14.59
2022-09-11T08:23:21.612Z,14.37
2022-09-11T08:28:23.170Z,14.39
2022-09-11T08:33:25.107Z,14.42
2022-09-11T08:38:27.944Z,14.63
2022-09-11T08:43:37.730Z,14.94
2022-09-11T08:49:05.910Z,15.06
2022-09-11T08:54:26.880Z,15.05
2022-09-11T08:59:42.720Z,15.37
2022-09-11T09:05:53.771Z,15.80
2022-09-11T09:11:19.969Z,16.00
2022-09-11T09:16:34.543Z,15.96
2022-09-11T09:21:45.835Z,15.55
2022-09-11T09:26:55.778Z,15.51
2022-09-11T09:32:05.963Z,15.61
2022-09-11T09:37:21.151Z,15.69
2022-09-11T09:42:55.236Z,15.76
2022-09-11T09:47:58.258Z,15.64
2022-09-11T09:53:32.589Z,15.84
2022-09-11T09:58:42.624Z,16.01
2022-09-11T10:03:44.361Z,15.88
2022-09-11T10:08:45.946Z,15.81
2022-09-11T10:13:54.857Z,15.85
2022-09-11T10:18:56.651Z,16.02
2022-09-11T10:24:22.087Z,16.42
2022-09-11T10:29:29.499Z,16.57
2022-09-11T10:34:39.972Z,16.53
2022-09-11T10:39:46.333Z,16.43
2022-09-11T10:44:50.998Z,16.33
2022-09-11T10:50:21.521Z,16.48
2022-09-11T10:55:34.799Z,16.72
2022-09-11T11:00:38.233Z,16.81
2022-09-11T11:06:13.915Z,17.27
2022-09-11T11:11:51.133Z,17.45
2022-09-11T11:17:42.984Z,17.23
2022-09-11T11:23:15.925Z,16.95
2022-09-11T11:28:49.434Z,17.12
2022-09-11T11:34:08.793Z,17.39
2022-09-11T11:39:49.029Z,17.24
2022-09-11T11:45:03.587Z,17.32
2022-09-11T11:50:21.881Z,17.11
2022-09-11T11:55:46.404Z,16.69
2022-09-11T12:00:59.378Z,16.76
2022-09-11T12:06:02.558Z,16.83
2022-09-11T12:11:07.607Z,17.13
2022-09-11T12:16:27.967Z,17.09
2022-09-11T12:21:31.022Z,17.39
2022-09-11T12:26:32.742Z,17.57
2022-09-11T12:32:17.682Z,16.93
2022-09-11T12:37:34.837Z,16.75
2022-09-11T12:42:39.225Z,16.91
2022-09-11T12:47:41.244Z,16.69
2022-09-11T12:52:45.871Z,16.73
2022-09-11T12:57:52.432Z,16.49
2022-09-11T13:02:57.460Z,16.55
2022-09-11T13:08:28.770Z,16.58
2022-09-11T13:13:36.938Z,16.75
2022-09-11T13:18:43.343Z,16.55
2022-09-11T13:23:46.624Z,16.44
2022-09-11T13:28:52.725Z,16.03
2022-09-11T13:33:54.629Z,16.03
2022-09-11T13:39:01.261Z,16.25
2022-09-11T13:44:11.082Z,16.59
2022-09-11T13:49:33.580Z,16.93
2022-09-11T13:54:47.139Z,16.69
2022-09-11T13:59:59.681Z,16.67
2022-09-11T14:05:22.986Z,16.46
2022-09-11T14:10:37.651Z,16.51
2022-09-11T14:15:56.408Z,16.37
2022-09-11T14:21:03.689Z,16.45
2022-09-11T14:26:09.050Z,16.61
2022-09-11T14:31:13.958Z,16.75
2022-09-11T14:36:20.105Z,16.57
2022-09-11T14:41:21.738Z,16.29
2022-09-11T14:46:23.489Z,16.18
2022-09-11T14:51:25.438Z,16.23
2022-09-11T14:56:27.189Z,16.02
2022-09-11T15:01:29.361Z,15.88
2022-09-11T15:06:31.206Z,15.72
2022-09-11T15:11:36.225Z,15.67
2022-09-11T15:16:42.089Z,15.60
2022-09-11T15:21:43.701Z,15.58
2022-09-11T15:26:46.648Z,15.73
2022-09-11T15:31:49.327Z,15.57
2022-09-11T15:36:50.998Z,15.62
2022-09-11T15:41:54.948Z,15.52
2022-09-11T15:46:58.545Z,15.48
2022-09-11T15:52:00.598Z,15.29
2022-09-11T15:57:02.559Z,15.20
2022-09-11T16:02:04.178Z,15.04
2022-09-11T16:07:05.877Z,14.96
2022-09-11T16:12:07.662Z,14.81
2022-09-11T16:17:11.041Z,14.63
2022-09-11T16:22:12.704Z,14.53
2022-09-11T16:27:14.438Z,14.44
2022-09-11T16:32:27.291Z,14.31
2022-09-11T16:37:31.771Z,14.23
2022-09-11T16:42:33.645Z,14.13
2022-09-11T16:47:35.424Z,13.99
2022-09-11T16:52:38.814Z,13.86
2022-09-11T16:57:43.875Z,13.76
2022-09-11T17:02:45.490Z,13.65
2022-09-11T17:07:47.094Z,13.51
2022-09-11T17:12:49.470Z,13.43
2022-09-11T17:17:54.171Z,13.26
2022-09-11T17:22:58.022Z,13.11
2022-09-11T17:28:00.667Z,12.99
2022-09-11T17:33:02.704Z,12.93
2022-09-11T17:38:04.869Z,12.86
2022-09-11T17:43:07.122Z,12.72
2022-09-11T17:48:08.674Z,12.63
2022-09-11T17:53:10.877Z,12.53
2022-09-11T17:58:12.563Z,12.43
2022-09-11T18:03:14.636Z,12.35
2022-09-11T18:08:16.415Z,12.26
2022-09-11T18:13:21.465Z,12.21
2022-09-11T18:18:24.490Z,12.14
2022-09-11T18:23:26.135Z,12.08
2022-09-11T18:28:29.738Z,12.02
2022-09-11T18:33:32.676Z,11.97
2022-09-11T18:38:35.406Z,11.92
2022-09-11T18:43:37.067Z,11.93
2022-09-11T18:48:43.849Z,11.86
2022-09-11T18:53:51.523Z,11.82
2022-09-11T18:58:53.541Z,11.79
2022-09-11T19:03:55.690Z,11.75
2022-09-11T19:08:57.530Z,11.70
2022-09-11T19:14:06.779Z,11.67
2022-09-11T19:19:09.068Z,11.62
2022-09-11T19:24:12.016Z,11.55
2022-09-11T19:29:15.219Z,11.46
2022-09-11T19:34:16.798Z,11.38
2022-09-11T19:39:18.522Z,11.26
2022-09-11T19:44:20.278Z,11.14
2022-09-11T19:49:21.806Z,11.05
2022-09-11T19:54:23.999Z,11.02
2022-09-11T19:59:25.757Z,11.06
2022-09-11T20:04:27.624Z,11.13
2022-09-11T20:09:31.744Z,11.11
2022-09-11T20:14:33.778Z,11.02
2022-09-11T20:19:35.463Z,10.97
2022-09-11T20:24:36.959Z,11.06
2022-09-11T20:29:39.519Z,11.19
2022-09-11T20:34:41.090Z,11.32
2022-09-11T20:39:42.704Z,11.41
2022-09-11T20:44:44.893Z,11.48
2022-09-11T20:49:46.383Z,11.54
2022-09-11T20:54:48.488Z,11.57
2022-09-11T20:59:50.062Z,11.54
2022-09-11T21:04:51.822Z,11.50
2022-09-11T21:09:53.445Z,11.43
2022-09-11T21:14:55.082Z,11.34
2022-09-11T21:19:57.555Z,11.23
2022-09-11T21:24:59.206Z,11.13
2022-09-11T21:30:00.735Z,11.00
2022-09-11T21:35:02.259Z,10.91
2022-09-11T21:40:05.412Z,10.86
2022-09-11T21:45:07.705Z,10.78
2022-09-11T21:50:09.841Z,10.70
2022-09-11T21:55:12.842Z,10.63
2022-09-11T22:00:15.215Z,10.63
2022-09-11T22:05:16.879Z,10.64
2022-09-11T22:10:18.628Z,10.66
2022-09-11T22:15:20.143Z,10.67
2022-09-11T22:20:23.058Z,10.62
2022-09-11T22:25:25.226Z,10.52
2022-09-11T22:30:29.588Z,10.39
2022-09-11T22:35:34.721Z,10.23
2022-09-11T22:40:36.267Z,10.09
2022-09-11T22:45:38.299Z,10.00
2022-09-11T22:50:39.839Z,9.92
2022-09-11T22:55:45.801Z,9.87
2022-09-11T23:00:50.998Z,9.84
2022-09-11T23:06:19.637Z,9.84
2022-09-11T23:11:22.034Z,9.81
2022-09-11T23:16:27.227Z,9.75
2022-09-11T23:21:34.996Z,9.70
2022-09-11T23:26:36.629Z,9.67
2022-09-11T23:31:39.413Z,9.64
2022-09-11T23:36:41.959Z,9.62
2022-09-11T23:41:43.539Z,9.61
2022-09-11T23:46:45.104Z,9.58
2022-09-11T23:51:48.580Z,9.57
2022-09-11T23:56:50.093Z,9.56
